createdAt,value
2023-02-17T00:02:26.021Z,87.50
2023-02-17T00:07:31.525Z,96.80
2023-02-17T00:12:35.063Z,99.10
2023-02-17T00:17:37.517Z,95.60
2023-02-17T00:22:39.685Z,84.70
2023-02-17T00:27:41.618Z,82.10
2023-02-17T00:32:44.326Z,83.10
2023-02-17T00:37:46.152Z,85.60
2023-02-17T00:42:48.996Z,87.70
2023-02-17T00:47:50.946Z,80.80
2023-02-17T00:52:52.805Z,76.10
2023-02-17T00:57:54.964Z,76.30
2023-02-17T01:02:57.600Z,79.60
2023-02-17T01:07:59.695Z,77.90
2023-02-17T01:13:02.581Z,81.70
2023-02-17T01:18:04.597Z,77.60
2023-02-17T01:23:07.973Z,80.30
2023-02-17T01:28:21.702Z,77.00
2023-02-17T01:33:23.663Z,76.10
2023-02-17T01:38:25.711Z,71.80
2023-02-17T01:43:27.588Z,78.70
2023-02-17T01:48:31.776Z,70.00
2023-02-17T01:53:39.998Z,74.90
2023-02-17T01:58:47.054Z,70.90
2023-02-17T02:03:51.061Z,74.30
2023-02-17T02:08:59.536Z,68.40
2023-02-17T02:14:07.229Z,68.30
2023-02-17T02:19:36.265Z,71.40
2023-02-17T02:24:58.715Z,69.60
2023-02-17T02:30:31.524Z,72.80
2023-02-17T02:35:48.361Z,70.80
2023-02-17T02:41:20.691Z,62.80
2023-02-17T02:46:22.893Z,66.70
2023-02-17T02:51:49.722Z,63.40
2023-02-17T02:57:04.530Z,61.00
2023-02-17T03:02:29.622Z,59.50
2023-02-17T03:07:45.266Z,61.30
2023-02-17T03:12:49.009Z,52.70
2023-02-17T03:17:50.988Z,60.50
2023-02-17T03:22:53.192Z,59.00
2023-02-17T03:27:55.347Z,59.60
2023-02-17T03:32:57.515Z,60.10
2023-02-17T03:37:59.604Z,59.90
2023-02-17T03:43:09.130Z,60.00
2023-02-17T03:48:11.074Z,54.30
2023-02-17T03:53:12.937Z,57.60
2023-02-17T03:58:14.955Z,55.60
2023-02-17T04:03:16.798Z,57.20
2023-02-17T04:08:18.717Z,54.60
2023-02-17T04:13:20.899Z,52.70
2023-02-17T04:18:23.778Z,62.30
2023-02-17T04:23:26.369Z,58.50
2023-02-17T04:28:28.813Z,57.80
2023-02-17T04:33:31.124Z,57.80
2023-02-17T04:38:33.655Z,58.40
2023-02-17T04:43:35.705Z,61.10
2023-02-17T04:48:38.263Z,57.60
2023-02-17T04:53:40.237Z,58.50
2023-02-17T04:58:42.634Z,53.90
2023-02-17T05:03:44.828Z,56.00
2023-02-17T05:08:48.330Z,64.20
2023-02-17T05:13:50.576Z,63.10
2023-02-17T05:18:52.823Z,59.10
2023-02-17T05:23:55.006Z,52.40
2023-02-17T05:28:57.506Z,50.20
2023-02-17T05:33:59.528Z,56.30
2023-02-17T05:39:02.016Z,54.50
2023-02-17T05:44:04.060Z,55.00
2023-02-17T05:49:05.988Z,54.10
2023-02-17T05:54:08.165Z,52.70
2023-02-17T05:59:10.249Z,59.50
2023-02-17T06:04:12.201Z,53.20
2023-02-17T06:09:15.109Z,55.60
2023-02-17T06:14:16.984Z,53.20
2023-02-17T06:19:19.229Z,57.00
2023-02-17T06:24:21.061Z,53.70
2023-02-17T06:29:22.868Z,50.80
2023-02-17T06:34:25.105Z,55.40
2023-02-17T06:39:27.113Z,53.60
2023-02-17T06:44:29.264Z,61.10
2023-02-17T06:49:31.103Z,53.60
2023-02-17T06:54:32.988Z,52.50
2023-02-17T06:59:34.939Z,54.40
2023-02-17T07:04:37.009Z,57.40
2023-02-17T07:09:40.166Z,47.80
2023-02-17T07:14:42.109Z,42.10
2023-02-17T07:19:43.972Z,42.00
2023-02-17T07:24:46.049Z,43.00
2023-02-17T07:29:48.012Z,41.50
2023-02-17T07:34:53.253Z,40.00
2023-02-17T07:39:57.167Z,40.00
2023-02-17T07:44:59.148Z,40.70
2023-02-17T07:50:01.243Z,40.10
2023-02-17T07:55:03.941Z,39.20
2023-02-17T08:00:09.258Z,38.80
2023-02-17T08:05:16.077Z,38.70
2023-02-17T08:10:36.983Z,36.10
2023-02-17T08:16:30.888Z,37.10
2023-02-17T08:21:38.967Z,37.80
2023-02-17T08:26:40.907Z,40.40
2023-02-17T08:31:43.522Z,35.50
2023-02-17T08:36:45.651Z,34.20
2023-02-17T08:41:48.323Z,36.50
2023-02-17T08:46:51.847Z,33.40
2023-02-17T08:51:54.222Z,36.20
2023-02-17T08:56:59.238Z,34.20
2023-02-17T09:02:01.663Z,32.30
2023-02-17T09:07:04.132Z,29.10
2023-02-17T09:12:06.509Z,29.40
2023-02-17T09:17:08.627Z,29.80
2023-02-17T09:22:20.055Z,28.90
2023-02-17T09:27:32.813Z,29.00
2023-02-17T09:32:35.024Z,29.30
2023-02-17T09:37:37.103Z,31.50
2023-02-17T09:42:40.769Z,30.00
2023-02-17T09:48:00.051Z,24.40
2023-02-17T09:53:18.110Z,29.50
2023-02-17T09:58:42.192Z,26.10
2023-02-17T10:03:52.169Z,26.40
2023-02-17T10:09:00.646Z,31.10
2023-02-17T10:14:10.061Z,28.40
2023-02-17T10:19:25.627Z,29.60
2023-02-17T10:24:27.647Z,29.20
2023-02-17T10:30:08.185Z,27.50
2023-02-17T10:35:18.773Z,29.00
2023-02-17T10:40:25.357Z,28.50
2023-02-17T10:45:40.893Z,26.20
2023-02-17T10:50:44.545Z,26.80
2023-02-17T11:01:49.431Z,23.80
2023-02-17T11:06:55.192Z,24.30
2023-02-17T11:12:11.988Z,26.30
2023-02-17T11:17:23.674Z,26.20
2023-02-17T11:22:41.180Z,26.40
2023-02-17T11:27:51.153Z,27.10
2023-02-17T11:32:55.224Z,27.10
2023-02-17T11:38:15.811Z,24.40
2023-02-17T11:43:21.355Z,25.00
2023-02-17T11:48:43.140Z,26.50
2023-02-17T11:54:00.984Z,26.10
2023-02-17T11:59:11.975Z,24.60
2023-02-17T12:04:31.713Z,27.80
2023-02-17T12:10:43.383Z,23.90
2023-02-17T12:16:27.073Z,25.90
2023-02-17T12:21:39.322Z,24.80
2023-02-17T12:27:28.283Z,23.20
2023-02-17T12:33:17.506Z,24.60
2023-02-17T12:38:27.231Z,24.40
2023-02-17T12:43:49.232Z,24.50
2023-02-17T12:48:59.934Z,24.70
2023-02-17T12:54:32.211Z,25.90
2023-02-17T12:59:47.017Z,25.50
2023-02-17T13:05:04.577Z,24.80
2023-02-17T13:10:17.935Z,24.30
2023-02-17T13:15:35.477Z,26.60
2023-02-17T13:20:39.183Z,25.10
2023-02-17T13:25:41.878Z,24.80
2023-02-17T13:30:45.826Z,25.40
2023-02-17T13:35:49.495Z,22.00
2023-02-17T13:40:52.283Z,22.80
2023-02-17T13:46:03.057Z,20.50
2023-02-17T13:51:17.451Z,21.40
2023-02-17T13:56:37.144Z,21.20
2023-02-17T14:01:42.672Z,21.10
2023-02-17T14:06:45.705Z,21.40
2023-02-17T14:11:50.406Z,20.90
2023-02-17T14:17:02.982Z,21.90
2023-02-17T14:22:06.752Z,22.00
2023-02-17T14:27:14.171Z,23.60
2023-02-17T14:32:38.634Z,21.50
2023-02-17T14:37:42.505Z,22.70
2023-02-17T14:42:45.674Z,25.30
2023-02-17T14:47:49.267Z,23.40
2023-02-17T14:52:55.288Z,23.30
2023-02-17T14:57:57.546Z,26.70
2023-02-17T15:02:59.920Z,25.10
2023-02-17T15:08:02.277Z,24.20
2023-02-17T15:13:05.327Z,23.30
2023-02-17T15:18:08.037Z,21.00
2023-02-17T15:23:16.701Z,25.10
2023-02-17T15:28:20.595Z,21.80
2023-02-17T15:33:26.856Z,20.50
2023-02-17T15:38:28.934Z,22.70
2023-02-17T15:48:40.150Z,20.10
2023-02-17T15:53:42.626Z,20.10
2023-02-17T15:58:47.349Z,18.90
2023-02-17T16:03:49.403Z,19.40
2023-02-17T16:08:54.698Z,21.10
2023-02-17T16:13:57.287Z,20.20
2023-02-17T16:19:01.097Z,20.40
2023-02-17T16:24:03.781Z,21.10
2023-02-17T16:29:20.989Z,23.40
2023-02-17T16:34:24.107Z,24.30
2023-02-17T16:39:27.055Z,23.40
2023-02-17T16:44:29.048Z,21.00
2023-02-17T16:49:33.949Z,22.50
2023-02-17T16:54:36.059Z,19.50
2023-02-17T16:59:38.210Z,21.00
2023-02-17T17:04:40.180Z,21.50
2023-02-17T17:09:45.268Z,21.10
2023-02-17T17:14:51.215Z,21.70
2023-02-17T17:19:53.373Z,18.00
2023-02-17T17:24:55.390Z,19.60
2023-02-17T17:29:57.657Z,21.30
2023-02-17T17:35:00.090Z,19.60
2023-02-17T17:40:01.949Z,20.00
2023-02-17T17:45:04.628Z,20.00
2023-02-17T17:50:11.069Z,23.90
2023-02-17T17:55:14.842Z,23.40
2023-02-17T18:00:18.733Z,23.30
2023-02-17T18:05:23.215Z,22.50
2023-02-17T18:10:25.212Z,23.00
2023-02-17T18:15:27.522Z,20.00
2023-02-17T18:20:29.844Z,21.00
2023-02-17T18:25:32.250Z,19.40
2023-02-17T18:30:34.779Z,20.50
2023-02-17T18:35:38.665Z,19.70
2023-02-17T18:40:42.135Z,15.80
2023-02-17T18:45:48.879Z,17.80
2023-02-17T18:50:51.288Z,17.00
2023-02-17T18:55:53.181Z,13.80
2023-02-17T19:00:57.369Z,13.70
2023-02-17T19:06:11.933Z,13.80
2023-02-17T19:11:17.217Z,13.20
2023-02-17T19:16:25.650Z,12.90
2023-02-17T19:21:28.220Z,11.70
2023-02-17T19:26:30.720Z,12.40
2023-02-17T19:31:33.156Z,10.40
2023-02-17T19:36:38.617Z,11.40
2023-02-17T19:41:41.245Z,9.60
2023-02-17T19:46:43.336Z,10.90
2023-02-17T19:51:46.159Z,10.60
2023-02-17T19:56:49.607Z,8.80
2023-02-17T20:01:51.792Z,9.20
2023-02-17T20:06:54.270Z,9.80
2023-02-17T20:11:57.178Z,9.50
2023-02-17T20:17:00.739Z,11.90
2023-02-17T20:22:04.060Z,10.00
2023-02-17T20:27:06.672Z,8.40
2023-02-17T20:32:08.987Z,8.70
2023-02-17T20:37:11.560Z,8.60
2023-02-17T20:42:13.505Z,7.80
2023-02-17T20:47:15.590Z,7.70
2023-02-17T20:52:18.832Z,8.50
2023-02-17T20:57:20.793Z,8.20
2023-02-17T21:02:23.165Z,6.60
2023-02-17T21:07:25.672Z,7.70
2023-02-17T21:12:27.604Z,6.50
2023-02-17T21:17:29.535Z,7.30
2023-02-17T21:22:31.832Z,7.80
2023-02-17T21:27:34.632Z,6.80
2023-02-17T21:32:38.667Z,5.70
2023-02-17T21:37:41.356Z,6.60
2023-02-17T21:43:02.075Z,5.90
2023-02-17T21:48:04.544Z,6.20
2023-02-17T21:53:06.777Z,5.30
2023-02-17T21:58:09.093Z,6.10
2023-02-17T22:03:11.732Z,6.60
2023-02-17T22:08:16.593Z,6.20
2023-02-17T22:13:24.147Z,6.20
2023-02-17T22:18:26.761Z,5.50
2023-02-17T22:23:28.604Z,6.50
2023-02-17T22:28:30.596Z,6.90
2023-02-17T22:33:33.422Z,7.90
2023-02-17T22:38:36.139Z,7.50
2023-02-17T22:43:41.130Z,7.30
2023-02-17T22:48:52.284Z,7.60
2023-02-17T22:53:55.082Z,6.70
2023-02-17T22:59:00.789Z,7.40
2023-02-17T23:04:06.642Z,8.60
2023-02-17T23:09:13.818Z,9.30
2023-02-17T23:14:18.991Z,9.00
2023-02-17T23:19:22.416Z,8.90
2023-02-17T23:24:26.406Z,9.00
2023-02-17T23:29:30.799Z,8.70
2023-02-17T23:34:34.147Z,6.20
2023-02-17T23:39:38.174Z,7.00
2023-02-17T23:44:40.280Z,6.40
2023-02-17T23:49:42.783Z,5.60
2023-02-17T23:54:44.782Z,6.80
2023-02-17T23:59:47.106Z,5.10
